createdAt,value
2023-03-18T00:01:55.257Z,8.77
2023-03-18T00:04:24.422Z,9.10
2023-03-18T00:06:52.484Z,8.63
2023-03-18T00:09:21.244Z,8.70
2023-03-18T00:11:49.352Z,8.33
2023-03-18T00:14:17.639Z,8.90
2023-03-18T00:16:47.214Z,8.20
2023-03-18T00:19:15.514Z,7.53
2023-03-18T00:21:43.690Z,7.97
2023-03-18T00:24:12.444Z,7.20
2023-03-18T00:26:40.715Z,8.57
2023-03-18T00:29:08.978Z,8.20
2023-03-18T00:31:38.435Z,7.90
2023-03-18T00:34:08.094Z,8.83
2023-03-18T00:36:37.493Z,8.10
2023-03-18T00:39:05.888Z,7.30
2023-03-18T00:41:36.479Z,7.77
2023-03-18T00:44:04.888Z,8.13
2023-03-18T00:46:34.730Z,7.40
2023-03-18T00:49:05.215Z,7.57
2023-03-18T00:51:36.475Z,7.40
2023-03-18T00:54:07.514Z,7.13
2023-03-18T00:56:37.722Z,7.50
2023-03-18T00:59:06.894Z,7.50
2023-03-18T01:01:35.879Z,7.70
2023-03-18T01:04:04.537Z,6.83
2023-03-18T01:06:37.566Z,7.13
2023-03-18T01:09:07.217Z,7.30
2023-03-18T01:11:35.703Z,7.67
2023-03-18T01:14:03.956Z,7.33
2023-03-18T01:16:32.293Z,7.07
2023-03-18T01:19:00.530Z,8.00
2023-03-18T01:21:28.763Z,7.17
2023-03-18T01:24:01.752Z,7.53
2023-03-18T01:26:31.442Z,7.63
2023-03-18T01:29:01.184Z,7.30
2023-03-18T01:31:31.273Z,7.77
2023-03-18T01:34:05.144Z,7.33
2023-03-18T01:36:43.414Z,6.73
2023-03-18T01:39:12.990Z,6.83
2023-03-18T01:41:41.457Z,7.40
2023-03-18T01:44:17.702Z,7.80
2023-03-18T01:46:48.532Z,6.43
2023-03-18T01:49:21.723Z,6.87
2023-03-18T01:51:52.803Z,7.10
2023-03-18T01:54:24.858Z,7.80
2023-03-18T01:56:54.170Z,7.50
2023-03-18T01:59:26.479Z,7.60
2023-03-18T02:01:59.237Z,7.10
2023-03-18T02:04:38.519Z,7.10
2023-03-18T02:07:08.809Z,7.40
2023-03-18T02:09:38.358Z,6.43
2023-03-18T02:12:09.614Z,7.20
2023-03-18T02:14:38.363Z,7.70
2023-03-18T02:17:11.816Z,7.17
2023-03-18T02:19:59.325Z,7.00
2023-03-18T02:22:33.313Z,6.87
2023-03-18T02:25:20.695Z,6.53
2023-03-18T02:27:55.528Z,6.67
2023-03-18T02:30:27.792Z,7.57
2023-03-18T02:32:59.410Z,7.43
2023-03-18T02:35:29.234Z,7.53
2023-03-18T02:38:00.481Z,6.30
2023-03-18T02:40:30.906Z,6.37
2023-03-18T02:43:18.385Z,6.03
2023-03-18T02:46:02.533Z,6.97
2023-03-18T02:48:36.715Z,6.77
2023-03-18T02:51:05.741Z,7.60
2023-03-18T02:53:34.369Z,6.97
2023-03-18T02:56:02.915Z,5.87
2023-03-18T02:58:33.590Z,6.90
2023-03-18T03:01:03.647Z,7.27
2023-03-18T03:03:31.926Z,6.67
2023-03-18T03:06:00.138Z,6.40
2023-03-18T03:08:29.356Z,7.03
2023-03-18T03:10:57.635Z,7.30
2023-03-18T03:13:26.224Z,7.10
2023-03-18T03:15:56.438Z,7.67
2023-03-18T03:18:24.624Z,6.73
2023-03-18T03:20:52.782Z,6.20
2023-03-18T03:23:21.851Z,6.53
2023-03-18T03:25:51.134Z,7.63
2023-03-18T03:28:21.408Z,7.20
2023-03-18T03:30:49.653Z,6.67
2023-03-18T03:33:19.266Z,7.13
2023-03-18T03:35:47.395Z,6.47
2023-03-18T03:38:16.217Z,6.20
2023-03-18T03:40:45.398Z,7.20
2023-03-18T03:43:14.629Z,7.10
2023-03-18T03:45:43.809Z,7.17
2023-03-18T03:48:12.973Z,6.70
2023-03-18T03:50:42.736Z,6.67
2023-03-18T03:53:11.566Z,6.50
2023-03-18T03:55:39.799Z,7.40
2023-03-18T03:58:08.024Z,7.03
2023-03-18T04:00:36.585Z,7.13
2023-03-18T04:03:05.225Z,7.07
2023-03-18T04:05:33.741Z,7.50
2023-03-18T04:08:03.532Z,7.20
2023-03-18T04:10:39.514Z,6.53
2023-03-18T04:13:10.697Z,7.13
2023-03-18T04:15:41.233Z,7.40
2023-03-18T04:18:14.837Z,6.73
2023-03-18T04:20:42.992Z,7.67
2023-03-18T04:23:21.329Z,6.87
2023-03-18T04:25:49.446Z,7.13
2023-03-18T04:28:17.876Z,7.63
2023-03-18T04:30:46.049Z,8.20
2023-03-18T04:33:18.001Z,7.90
2023-03-18T04:35:46.761Z,7.10
2023-03-18T04:38:16.541Z,7.40
2023-03-18T04:40:46.391Z,6.77
2023-03-18T04:43:14.640Z,6.97
2023-03-18T04:45:43.747Z,7.43
2023-03-18T04:48:12.189Z,6.77
2023-03-18T04:50:43.597Z,7.23
2023-03-18T04:53:16.826Z,6.47
2023-03-18T04:55:47.523Z,6.97
2023-03-18T04:58:17.274Z,7.07
2023-03-18T05:00:57.215Z,7.20
2023-03-18T05:03:32.020Z,8.30
2023-03-18T05:06:00.307Z,7.50
2023-03-18T05:08:37.805Z,9.33
2023-03-18T05:11:07.390Z,8.07
2023-03-18T05:13:37.638Z,7.40
2023-03-18T05:16:08.959Z,6.57
2023-03-18T05:18:38.081Z,7.10
2023-03-18T05:21:07.793Z,6.90
2023-03-18T05:23:36.766Z,6.97
2023-03-18T05:26:07.206Z,6.47
2023-03-18T05:28:35.833Z,6.97
2023-03-18T05:31:14.681Z,6.37
2023-03-18T05:33:45.108Z,6.60
2023-03-18T05:36:14.963Z,7.60
2023-03-18T05:38:54.498Z,6.97
2023-03-18T05:41:24.936Z,6.90
2023-03-18T05:43:53.790Z,6.50
2023-03-18T05:46:22.027Z,6.30
2023-03-18T05:49:08.902Z,6.47
2023-03-18T05:51:47.429Z,7.63
2023-03-18T05:54:25.536Z,7.03
2023-03-18T05:56:55.521Z,6.40
2023-03-18T05:59:25.327Z,6.67
2023-03-18T06:01:58.176Z,6.03
2023-03-18T06:04:27.870Z,6.83
2023-03-18T06:06:57.111Z,6.13
2023-03-18T06:09:27.376Z,8.70
2023-03-18T06:11:58.660Z,9.77
2023-03-18T06:14:29.470Z,11.13
2023-03-18T06:17:01.202Z,10.10
2023-03-18T06:19:30.816Z,10.17
2023-03-18T06:21:59.481Z,10.43
2023-03-18T06:24:27.656Z,9.90
2023-03-18T06:26:58.909Z,9.00
2023-03-18T06:29:27.244Z,7.83
2023-03-18T06:31:59.287Z,6.77
2023-03-18T06:34:28.483Z,6.27
2023-03-18T06:36:57.724Z,7.07
2023-03-18T06:39:28.608Z,6.77
2023-03-18T06:41:58.449Z,6.43
2023-03-18T06:44:50.792Z,6.33
2023-03-18T06:47:25.146Z,6.40
2023-03-18T06:49:56.831Z,5.97
2023-03-18T06:52:32.041Z,5.67
2023-03-18T06:55:07.217Z,6.73
2023-03-18T06:57:40.676Z,5.77
2023-03-18T07:00:11.228Z,6.27
2023-03-18T07:02:39.884Z,6.70
2023-03-18T07:05:12.866Z,6.27
2023-03-18T07:07:42.624Z,5.33
2023-03-18T07:10:15.495Z,6.30
2023-03-18T07:12:45.137Z,6.07
2023-03-18T07:15:13.676Z,6.13
2023-03-18T07:17:41.908Z,5.33
2023-03-18T07:20:11.636Z,6.10
2023-03-18T07:22:39.798Z,5.67
2023-03-18T07:25:08.874Z,6.13
2023-03-18T07:27:37.848Z,6.20
2023-03-18T07:30:09.704Z,5.20
2023-03-18T07:32:38.592Z,6.20
2023-03-18T07:35:08.134Z,5.80
2023-03-18T07:37:36.314Z,6.17
2023-03-18T07:40:05.738Z,5.70
2023-03-18T07:42:34.564Z,5.83
2023-03-18T07:45:02.680Z,5.77
2023-03-18T07:47:32.167Z,6.07
2023-03-18T07:50:00.249Z,6.10
2023-03-18T07:52:29.458Z,6.20
2023-03-18T07:54:57.828Z,6.28
2023-03-18T07:57:26.136Z,5.38
2023-03-18T07:59:54.677Z,6.05
2023-03-18T08:02:23.668Z,5.97
2023-03-18T08:04:53.441Z,6.20
2023-03-18T08:07:23.060Z,5.68
2023-03-18T08:09:51.440Z,6.05
2023-03-18T08:12:19.887Z,6.10
2023-03-18T08:14:48.381Z,6.40
2023-03-18T08:17:17.879Z,6.03
2023-03-18T08:19:47.165Z,6.35
2023-03-18T08:22:17.054Z,6.22
2023-03-18T08:24:45.852Z,6.15
2023-03-18T08:27:14.053Z,6.00
2023-03-18T08:29:42.217Z,5.57
2023-03-18T08:32:11.320Z,6.10
2023-03-18T08:34:39.553Z,6.13
2023-03-18T08:37:08.428Z,5.63
2023-03-18T08:39:37.958Z,6.07
2023-03-18T08:42:06.925Z,6.18
2023-03-18T08:44:35.012Z,6.55
2023-03-18T08:47:03.185Z,6.68
2023-03-18T08:49:31.335Z,6.35
2023-03-18T08:51:59.916Z,6.30
2023-03-18T08:54:28.046Z,6.88
2023-03-18T08:56:58.058Z,6.55
2023-03-18T08:59:26.579Z,7.25
2023-03-18T09:01:54.693Z,6.75
2023-03-18T09:04:22.864Z,6.50
2023-03-18T09:06:51.074Z,6.95
2023-03-18T09:09:19.247Z,6.63
2023-03-18T09:11:47.916Z,6.95
2023-03-18T09:14:17.502Z,6.53
2023-03-18T09:16:46.179Z,7.30
2023-03-18T09:19:14.415Z,6.40
2023-03-18T09:21:43.241Z,6.70
2023-03-18T09:24:11.669Z,6.88
2023-03-18T09:26:40.075Z,6.15
2023-03-18T09:29:08.246Z,7.05
2023-03-18T09:31:38.768Z,6.88
2023-03-18T09:34:07.056Z,7.53
2023-03-18T09:36:35.242Z,6.68
2023-03-18T09:39:03.949Z,7.03
2023-03-18T09:41:48.367Z,6.15
2023-03-18T09:44:22.861Z,6.78
2023-03-18T09:47:08.269Z,6.63
2023-03-18T09:49:48.303Z,6.57
2023-03-18T09:52:22.885Z,6.75
2023-03-18T09:54:58.896Z,6.93
2023-03-18T09:57:31.263Z,7.25
2023-03-18T10:00:05.271Z,6.25
2023-03-18T10:02:43.617Z,8.00
2023-03-18T10:05:16.830Z,6.88
2023-03-18T10:07:48.496Z,6.50
2023-03-18T10:10:25.115Z,6.80
2023-03-18T10:13:02.360Z,6.68
2023-03-18T10:15:37.146Z,6.70
2023-03-18T10:18:13.836Z,6.10
2023-03-18T10:20:53.850Z,6.70
2023-03-18T10:23:33.146Z,6.35
2023-03-18T10:26:06.903Z,6.68
2023-03-18T10:28:49.252Z,5.85
2023-03-18T10:31:32.795Z,6.95
2023-03-18T10:34:06.775Z,7.38
2023-03-18T10:36:44.401Z,6.32
2023-03-18T10:39:16.550Z,7.35
2023-03-18T10:41:50.075Z,6.50
2023-03-18T10:44:23.772Z,6.10
2023-03-18T10:47:00.049Z,7.25
2023-03-18T10:49:32.983Z,7.00
2023-03-18T10:52:07.831Z,7.50
2023-03-18T10:54:40.863Z,6.60
2023-03-18T10:57:14.273Z,7.00
2023-03-18T10:59:44.754Z,6.75
2023-03-18T11:02:19.724Z,6.10
2023-03-18T11:04:55.577Z,5.82
2023-03-18T11:07:26.764Z,7.13
2023-03-18T11:09:55.894Z,7.10
2023-03-18T11:12:27.185Z,7.00
2023-03-18T11:14:56.506Z,6.13
2023-03-18T11:17:29.327Z,6.78
2023-03-18T11:20:20.976Z,6.60
2023-03-18T11:22:52.276Z,6.95
2023-03-18T11:25:24.180Z,6.97
2023-03-18T11:27:54.186Z,7.07
2023-03-18T11:30:40.722Z,6.65
2023-03-18T11:33:16.210Z,6.97
2023-03-18T11:35:48.566Z,6.82
2023-03-18T11:38:19.544Z,6.25
2023-03-18T11:40:48.267Z,6.95
2023-03-18T11:43:20.233Z,6.88
2023-03-18T11:45:56.260Z,6.85
2023-03-18T11:48:35.773Z,7.03
2023-03-18T11:51:27.191Z,8.52
2023-03-18T11:54:09.602Z,7.75
2023-03-18T11:56:43.741Z,6.78
2023-03-18T11:59:38.798Z,6.50
2023-03-18T12:02:32.266Z,6.60
2023-03-18T12:05:29.574Z,6.88
2023-03-18T12:08:12.045Z,7.63
2023-03-18T12:10:48.300Z,6.75
2023-03-18T12:13:36.279Z,6.60
2023-03-18T12:16:13.382Z,6.78
2023-03-18T12:19:10.165Z,6.97
2023-03-18T12:21:52.851Z,6.45
2023-03-18T12:24:40.932Z,6.75
2023-03-18T12:27:20.166Z,7.13
2023-03-18T12:30:04.695Z,7.60
2023-03-18T12:32:38.061Z,7.28
2023-03-18T12:35:25.104Z,6.70
2023-03-18T12:38:09.866Z,6.63
2023-03-18T12:40:49.779Z,7.00
2023-03-18T12:43:37.947Z,7.18
2023-03-18T12:46:17.480Z,7.25
2023-03-18T12:48:53.322Z,7.32
2023-03-18T12:51:26.728Z,6.95
2023-03-18T12:53:58.456Z,6.88
2023-03-18T12:56:30.552Z,7.03
2023-03-18T12:59:06.532Z,6.80
2023-03-18T13:01:41.320Z,7.70
2023-03-18T13:04:14.705Z,7.53
2023-03-18T13:06:47.060Z,6.80
2023-03-18T13:09:28.731Z,7.38
2023-03-18T13:12:05.416Z,6.78
2023-03-18T13:14:50.351Z,6.78
2023-03-18T13:17:25.715Z,7.15
2023-03-18T13:19:53.893Z,7.05
2023-03-18T13:22:53.519Z,7.75
2023-03-18T13:25:33.627Z,6.45
2023-03-18T13:28:26.968Z,7.20
2023-03-18T13:31:07.451Z,7.22
2023-03-18T13:33:53.249Z,7.75
2023-03-18T13:36:35.997Z,7.40
2023-03-18T13:39:18.364Z,7.82
2023-03-18T13:42:14.020Z,7.95
2023-03-18T13:44:47.297Z,7.63
2023-03-18T13:47:19.509Z,7.38
2023-03-18T13:49:48.000Z,8.20
2023-03-18T13:52:27.999Z,7.53
2023-03-18T13:55:02.507Z,8.60
2023-03-18T13:57:49.782Z,7.45
2023-03-18T14:00:42.042Z,8.98
2023-03-18T14:03:30.019Z,8.93
2023-03-18T14:06:40.690Z,8.05
2023-03-18T14:09:24.927Z,7.88
2023-03-18T14:11:54.102Z,8.15
2023-03-18T14:15:02.685Z,8.60
2023-03-18T14:17:47.352Z,8.25
2023-03-18T14:20:39.881Z,8.98
2023-03-18T14:23:33.332Z,8.50
2023-03-18T14:26:04.556Z,8.05
2023-03-18T14:28:45.474Z,8.40
2023-03-18T14:31:58.018Z,8.68
2023-03-18T14:34:34.058Z,7.65
2023-03-18T14:37:27.717Z,8.68
2023-03-18T14:40:03.869Z,7.88
2023-03-18T14:42:42.172Z,8.20
2023-03-18T14:45:19.508Z,8.63
2023-03-18T14:47:51.068Z,8.48
2023-03-18T14:50:30.604Z,8.20
2023-03-18T14:53:04.171Z,8.63
2023-03-18T14:55:35.547Z,8.30
2023-03-18T14:58:04.561Z,8.32
2023-03-18T15:00:36.482Z,8.10
2023-03-18T15:03:08.376Z,7.53
2023-03-18T15:05:41.220Z,7.93
2023-03-18T15:08:15.824Z,7.63
2023-03-18T15:10:46.512Z,8.88
2023-03-18T15:13:17.999Z,8.10
2023-03-18T15:15:47.125Z,8.70
2023-03-18T15:18:20.840Z,7.23
2023-03-18T15:20:53.698Z,7.57
2023-03-18T15:23:30.148Z,7.87
2023-03-18T15:25:58.497Z,8.10
2023-03-18T15:28:29.881Z,8.90
2023-03-18T15:31:00.588Z,8.20
2023-03-18T15:33:31.849Z,7.47
2023-03-18T15:36:07.043Z,7.60
2023-03-18T15:38:35.410Z,8.10
2023-03-18T15:41:06.702Z,7.83
2023-03-18T15:43:40.789Z,7.90
2023-03-18T15:46:17.258Z,8.40
2023-03-18T15:48:54.226Z,7.83
2023-03-18T15:51:30.160Z,7.57
2023-03-18T15:54:01.608Z,7.37
2023-03-18T15:56:31.557Z,8.07
2023-03-18T15:59:06.913Z,7.33
2023-03-18T16:01:36.345Z,7.57
2023-03-18T16:04:07.725Z,7.30
2023-03-18T16:06:38.750Z,7.00
2023-03-18T16:09:17.286Z,7.60
2023-03-18T16:11:48.570Z,7.20
2023-03-18T16:14:18.892Z,8.30
2023-03-18T16:16:47.160Z,8.37
2023-03-18T16:19:25.142Z,8.13
2023-03-18T16:21:56.440Z,8.10
2023-03-18T16:24:25.239Z,8.07
2023-03-18T16:26:54.380Z,7.97
2023-03-18T16:29:28.944Z,6.90
2023-03-18T16:31:57.213Z,7.37
2023-03-18T16:34:26.022Z,8.37
2023-03-18T16:36:56.217Z,7.83
2023-03-18T16:39:27.601Z,7.07
2023-03-18T16:41:56.479Z,8.13
2023-03-18T16:44:25.012Z,7.50
2023-03-18T16:46:55.708Z,7.03
2023-03-18T16:49:26.006Z,7.67
2023-03-18T16:51:55.553Z,8.10
2023-03-18T16:54:25.830Z,7.90
2023-03-18T16:56:57.536Z,6.97
2023-03-18T16:59:30.817Z,7.00
2023-03-18T17:01:59.351Z,7.33
2023-03-18T17:04:31.637Z,7.43
2023-03-18T17:07:03.696Z,7.37
2023-03-18T17:09:33.987Z,8.97
2023-03-18T17:12:06.021Z,9.50
2023-03-18T17:14:37.668Z,8.47
2023-03-18T17:17:12.903Z,8.13
2023-03-18T17:19:42.001Z,7.83
2023-03-18T17:22:23.131Z,8.10
2023-03-18T17:24:52.413Z,7.17
2023-03-18T17:27:23.874Z,7.27
2023-03-18T17:29:52.814Z,8.07
2023-03-18T17:32:22.278Z,6.90
2023-03-18T17:34:52.939Z,6.97
2023-03-18T17:37:24.743Z,7.50
2023-03-18T17:39:53.718Z,7.70
2023-03-18T17:42:29.809Z,6.90
2023-03-18T17:45:05.731Z,6.93
2023-03-18T17:47:34.369Z,7.13
2023-03-18T17:50:03.841Z,6.80
2023-03-18T17:52:36.078Z,7.80
2023-03-18T17:55:15.273Z,8.63
2023-03-18T17:57:45.470Z,7.50
2023-03-18T18:00:21.890Z,9.13
2023-03-18T18:02:52.655Z,8.03
2023-03-18T18:05:24.341Z,7.63
2023-03-18T18:07:54.868Z,7.53
2023-03-18T18:10:24.957Z,8.40
2023-03-18T18:12:55.871Z,7.33
2023-03-18T18:15:28.368Z,7.90
2023-03-18T18:17:57.131Z,9.10
2023-03-18T18:20:26.334Z,7.57
2023-03-18T18:22:58.205Z,9.03
2023-03-18T18:25:31.368Z,7.67
2023-03-18T18:28:01.872Z,7.83
2023-03-18T18:30:33.148Z,7.73
2023-03-18T18:33:03.393Z,8.33
2023-03-18T18:35:33.358Z,8.63
2023-03-18T18:38:04.737Z,8.47
2023-03-18T18:40:35.372Z,8.27
2023-03-18T18:43:05.888Z,8.20
2023-03-18T18:45:35.828Z,10.37
2023-03-18T18:48:11.909Z,10.63
2023-03-18T18:50:41.850Z,11.23
2023-03-18T18:53:19.831Z,11.20
2023-03-18T18:55:49.992Z,11.33
2023-03-18T18:58:20.970Z,10.03
2023-03-18T19:00:52.316Z,10.17
2023-03-18T19:03:23.684Z,10.30
2023-03-18T19:05:55.197Z,9.77
2023-03-18T19:08:30.675Z,9.20
2023-03-18T19:11:01.870Z,9.13
2023-03-18T19:13:33.987Z,8.17
2023-03-18T19:16:07.407Z,7.90
2023-03-18T19:18:41.067Z,8.00
2023-03-18T19:21:11.650Z,8.43
2023-03-18T19:23:42.176Z,8.57
2023-03-18T19:26:15.762Z,12.13
2023-03-18T19:28:59.596Z,11.47
2023-03-18T19:31:35.554Z,9.50
2023-03-18T19:34:17.130Z,9.47
2023-03-18T19:36:49.833Z,9.37
2023-03-18T19:39:22.872Z,10.30
2023-03-18T19:41:53.755Z,9.73
2023-03-18T19:44:25.703Z,10.13
2023-03-18T19:46:57.633Z,9.07
2023-03-18T19:49:33.446Z,9.43
2023-03-18T19:52:04.874Z,8.70
2023-03-18T19:54:37.616Z,12.23
2023-03-18T19:57:14.640Z,10.27
2023-03-18T19:59:45.784Z,9.17
2023-03-18T20:02:25.213Z,9.30
2023-03-18T20:04:59.444Z,9.60
2023-03-18T20:07:32.172Z,8.27
2023-03-18T20:10:03.757Z,9.23
2023-03-18T20:12:38.067Z,9.43
2023-03-18T20:15:09.069Z,8.87
2023-03-18T20:17:42.884Z,9.30
2023-03-18T20:20:18.589Z,9.87
2023-03-18T20:22:49.630Z,9.17
2023-03-18T20:25:25.039Z,9.23
2023-03-18T20:27:57.245Z,10.30
2023-03-18T20:30:30.763Z,9.73
2023-03-18T20:33:04.728Z,10.37
2023-03-18T20:35:37.128Z,9.43
2023-03-18T20:38:14.978Z,9.83
2023-03-18T20:40:49.611Z,10.07
2023-03-18T20:43:21.665Z,10.13
2023-03-18T20:45:52.579Z,10.43
2023-03-18T20:48:23.002Z,10.60
2023-03-18T20:51:03.161Z,11.07
2023-03-18T20:53:33.297Z,11.03
2023-03-18T20:56:05.835Z,10.80
2023-03-18T20:58:34.928Z,9.83
2023-03-18T21:01:05.027Z,10.30
2023-03-18T21:03:37.626Z,9.63
2023-03-18T21:06:06.936Z,9.33
2023-03-18T21:08:36.595Z,9.87
2023-03-18T21:11:18.541Z,9.53
2023-03-18T21:13:49.685Z,10.57
2023-03-18T21:16:18.885Z,9.73
2023-03-18T21:18:49.957Z,11.97
2023-03-18T21:21:24.847Z,11.03
2023-03-18T21:23:55.174Z,9.90
2023-03-18T21:26:25.909Z,9.80
2023-03-18T21:28:55.348Z,9.93
2023-03-18T21:31:31.470Z,10.70
2023-03-18T21:34:01.993Z,11.80
2023-03-18T21:36:32.503Z,14.07
2023-03-18T21:39:01.051Z,11.63
2023-03-18T21:41:34.408Z,11.47
2023-03-18T21:44:04.482Z,11.20
2023-03-18T21:46:33.321Z,11.17
2023-03-18T21:49:02.262Z,11.30
2023-03-18T21:51:39.258Z,10.83
2023-03-18T21:54:18.395Z,10.17
2023-03-18T21:56:51.205Z,10.87
2023-03-18T21:59:20.192Z,11.10
2023-03-18T22:01:48.891Z,11.17
2023-03-18T22:04:17.314Z,10.83
2023-03-18T22:06:45.569Z,11.97
2023-03-18T22:09:13.735Z,11.17
2023-03-18T22:11:41.938Z,12.60
2023-03-18T22:14:15.115Z,12.67
2023-03-18T22:16:43.269Z,12.80
2023-03-18T22:19:11.375Z,11.20
2023-03-18T22:21:39.518Z,11.67
2023-03-18T22:24:14.171Z,12.27
2023-03-18T22:26:42.299Z,12.97
2023-03-18T22:29:10.524Z,11.97
2023-03-18T22:31:41.780Z,12.33
2023-03-18T22:34:22.711Z,13.00
2023-03-18T22:36:50.924Z,12.40
2023-03-18T22:39:19.008Z,12.37
2023-03-18T22:41:49.898Z,11.03
2023-03-18T22:44:23.603Z,12.83
2023-03-18T22:46:53.294Z,11.77
2023-03-18T22:49:21.447Z,13.20
2023-03-18T22:51:49.560Z,12.43
2023-03-18T22:54:19.566Z,12.57
2023-03-18T22:56:48.058Z,12.27
2023-03-18T22:59:16.250Z,13.37
2023-03-18T23:01:44.825Z,12.53
2023-03-18T23:04:14.491Z,12.53
2023-03-18T23:06:43.101Z,11.73
2023-03-18T23:09:11.258Z,11.80
2023-03-18T23:11:39.414Z,12.37
2023-03-18T23:14:08.725Z,11.83
2023-03-18T23:16:36.842Z,11.50
2023-03-18T23:19:05.003Z,11.50
2023-03-18T23:21:35.433Z,11.20
2023-03-18T23:24:03.582Z,10.70
2023-03-18T23:26:31.635Z,10.67
2023-03-18T23:28:59.725Z,10.57
2023-03-18T23:31:27.864Z,11.43
2023-03-18T23:33:55.936Z,11.53
2023-03-18T23:36:24.070Z,10.40
2023-03-18T23:38:53.605Z,11.07
2023-03-18T23:41:21.684Z,10.13
2023-03-18T23:43:49.832Z,10.87
2023-03-18T23:46:17.980Z,11.37
2023-03-18T23:48:46.093Z,10.27
2023-03-18T23:51:14.144Z,10.27
2023-03-18T23:53:42.237Z,11.30
2023-03-18T23:56:11.922Z,9.13
2023-03-18T23:58:40.085Z,8.97
